Time;durP1;ratioP1;P1;durP2;ratioP2;P2;SDS_P1;SDS_P2;PMS_P1;PMS_P2;Temp;Humidity;BMP_temperature;BMP_pressure;BME280_temperature;BME280_humidity;BME280_pressure;Samples;Min_cycle;Max_cycle;Signal;HPM_P1;HPM_P2
2023/04/11 00:02:16;;;;;;;5.50;5.00;;;10.10;99.90;;;;;;5095564;28;20420;-73
2023/04/11 00:04:41;;;;;;;5.90;5.40;;;10.10;99.90;;;;;;5096426;28;20753;-72
2023/04/11 00:07:08;;;;;;;6.80;5.53;;;10.00;99.90;;;;;;5096272;28;20269;-72
2023/04/11 00:09:33;;;;;;;6.87;6.07;;;10.00;99.90;;;;;;5095477;28;20163;-73
2023/04/11 00:12:00;;;;;;;6.50;5.90;;;10.00;99.90;;;;;;5094630;28;20433;-73
2023/04/11 00:14:27;;;;;;;7.20;6.10;;;10.00;99.90;;;;;;5095748;28;20457;-72
2023/04/11 00:16:54;;;;;;;6.13;5.53;;;10.00;99.90;;;;;;5096102;28;20377;-72
2023/04/11 00:19:22;;;;;;;6.40;5.60;;;10.00;99.90;;;;;;5096008;28;20403;-73
2023/04/11 00:21:49;;;;;;;7.40;6.40;;;10.00;99.90;;;;;;5093769;28;20464;-73
2023/04/11 00:24:15;;;;;;;6.43;5.67;;;10.00;99.90;;;;;;5088243;28;20958;-73
2023/04/11 00:26:41;;;;;;;6.37;5.77;;;9.90;99.90;;;;;;5075724;28;20473;-73
2023/04/11 00:29:07;;;;;;;6.63;5.90;;;10.00;99.90;;;;;;5075549;28;20470;-73
2023/04/11 00:31:33;;;;;;;5.40;4.80;;;10.00;99.90;;;;;;5073957;28;20400;-73
2023/04/11 00:33:59;;;;;;;6.70;5.60;;;9.90;99.90;;;;;;5075386;28;20202;-73
2023/04/11 00:36:31;;;;;;;7.23;5.67;;;9.90;99.90;;;;;;5075514;28;20415;-72
2023/04/11 00:39:03;;;;;;;9.10;5.70;;;9.90;99.90;;;;;;5075291;28;20174;-73
2023/04/11 00:41:28;;;;;;;4.83;4.10;;;9.90;99.90;;;;;;5074387;28;20414;-72
2023/04/11 00:43:54;;;;;;;6.90;6.30;;;9.90;99.90;;;;;;5057252;28;20404;-72
2023/04/11 00:46:20;;;;;;;5.77;5.27;;;9.80;99.90;;;;;;5094991;28;20728;-72
2023/04/11 00:48:47;;;;;;;5.90;5.40;;;9.80;99.90;;;;;;5076929;28;20538;-73
2023/04/11 00:51:17;;;;;;;5.10;4.70;;;9.80;99.90;;;;;;5094493;28;20408;-73
2023/04/11 00:53:44;;;;;;;5.33;4.83;;;9.80;99.90;;;;;;5093945;28;20441;-72
2023/04/11 00:56:10;;;;;;;5.50;5.00;;;9.80;99.90;;;;;;5095256;28;20421;-72
2023/04/11 00:58:37;;;;;;;5.73;4.97;;;9.80;99.90;;;;;;5095222;28;20436;-72
2023/04/11 01:01:08;;;;;;;6.70;5.10;;;9.80;99.90;;;;;;5094315;28;20388;-73
2023/04/11 01:03:44;;;;;;;5.87;5.37;;;9.80;99.90;;;;;;5095083;28;20890;-73
2023/04/11 01:06:11;;;;;;;7.10;6.27;;;9.80;99.90;;;;;;5094269;28;20822;-73
2023/04/11 01:08:39;;;;;;;8.13;5.40;;;9.80;99.90;;;;;;5074723;28;20424;-73
2023/04/11 01:11:06;;;;;;;5.57;4.67;;;9.70;99.90;;;;;;5056164;28;20397;-74
2023/04/11 01:13:34;;;;;;;6.27;5.63;;;9.70;99.90;;;;;;5074641;28;20437;-73
2023/04/11 01:16:01;;;;;;;7.07;5.90;;;9.70;99.90;;;;;;5056863;28;20986;-74
2023/04/11 01:18:26;;;;;;;7.03;6.03;;;9.80;1.00;;;;;;5056491;28;20799;-74
2023/04/11 01:20:53;;;;;;;6.17;5.57;;;9.70;1.00;;;;;;5073083;28;20442;-73
2023/04/11 01:23:24;;;;;;;6.67;5.40;;;9.70;1.00;;;;;;5074187;28;20197;-73
2023/04/11 01:25:50;;;;;;;6.83;6.13;;;9.70;1.00;;;;;;5074252;28;20405;-73
2023/04/11 01:28:17;;;;;;;8.23;5.33;;;9.70;1.00;;;;;;5074424;28;20419;-73
2023/04/11 01:30:43;;;;;;;7.10;5.43;;;9.70;1.00;;;;;;5073658;28;20412;-73
2023/04/11 01:33:10;;;;;;;6.40;5.80;;;9.70;1.00;;;;;;5073992;28;20451;-72
2023/04/11 01:35:36;;;;;;;6.57;5.00;;;9.70;1.00;;;;;;5085082;28;20624;-73
2023/04/11 01:38:03;;;;;;;5.23;4.80;;;9.70;1.00;;;;;;5076721;28;20454;-73
2023/04/11 01:40:31;;;;;;;6.50;5.40;;;9.70;1.00;;;;;;5093435;28;20416;-70
2023/04/11 01:42:57;;;;;;;10.90;5.30;;;9.60;1.00;;;;;;5076019;28;20935;-72
2023/04/11 01:45:25;;;;;;;5.50;5.00;;;9.60;1.00;;;;;;5076208;28;20388;-70
2023/04/11 01:47:53;;;;;;;7.80;4.80;;;9.60;1.00;;;;;;5075314;28;20416;-70
2023/04/11 01:50:20;;;;;;;4.73;4.33;;;9.60;1.00;;;;;;5075141;28;20459;-73
2023/04/11 01:52:49;;;;;;;4.90;4.37;;;9.50;1.00;;;;;;5073833;28;20514;-73
2023/04/11 01:55:15;;;;;;;5.50;4.13;;;9.50;1.00;;;;;;5073961;28;20379;-74
2023/04/11 01:57:41;;;;;;;8.00;5.33;;;9.50;1.00;;;;;;5073561;28;20479;-75
2023/04/11 02:00:11;;;;;;;6.70;5.00;;;9.40;1.00;;;;;;5072986;28;20396;-70
2023/04/11 02:02:37;;;;;;;4.50;4.07;;;9.40;1.00;;;;;;5057136;28;20207;-71
2023/04/11 02:05:03;;;;;;;5.30;4.80;;;9.40;1.00;;;;;;5076112;28;20868;-74
2023/04/11 02:07:29;;;;;;;5.17;4.67;;;9.40;1.00;;;;;;5093933;28;20515;-74
2023/04/11 02:09:56;;;;;;;4.73;4.00;;;9.40;1.00;;;;;;5093666;28;20553;-74
2023/04/11 02:12:22;;;;;;;4.03;3.73;;;9.40;1.00;;;;;;5092989;28;20191;-77
2023/04/11 02:14:48;;;;;;;9.23;4.03;;;9.30;1.00;;;;;;5093873;28;20407;-78
2023/04/11 02:17:17;;;;;;;7.13;4.00;;;9.20;1.00;;;;;;5078585;28;20408;-69
2023/04/11 02:19:46;;;;;;;4.37;3.57;;;9.20;1.00;;;;;;5073164;28;20398;-81
2023/04/11 02:22:13;;;;;;;4.70;4.30;;;9.20;1.00;;;;;;5072431;28;20417;-79
2023/04/11 02:24:39;;;;;;;6.30;4.33;;;9.30;1.00;;;;;;5073388;28;20812;-80
2023/04/11 02:27:05;;;;;;;10.70;3.50;;;9.30;1.00;;;;;;5073345;28;20437;-73
2023/04/11 02:29:40;;;;;;;3.80;3.50;;;9.30;1.00;;;;;;5073434;28;20172;-76
2023/04/11 02:32:05;;;;;;;5.83;4.00;;;9.30;1.00;;;;;;5087127;28;20512;-72
2023/04/11 02:34:31;;;;;;;4.17;3.83;;;9.30;1.00;;;;;;5093414;28;20432;-77
2023/04/11 02:36:57;;;;;;;5.03;4.50;;;9.30;1.00;;;;;;5093304;28;20199;-77
2023/04/11 02:39:23;;;;;;;5.20;3.93;;;9.30;1.00;;;;;;5092866;28;20171;-73
2023/04/11 02:41:49;;;;;;;4.23;3.83;;;9.30;1.00;;;;;;5092439;28;20229;-73
2023/04/11 02:44:15;;;;;;;4.13;3.73;;;9.30;1.00;;;;;;5091694;28;20230;-78
2023/04/11 02:46:41;;;;;;;4.00;3.60;;;9.30;1.00;;;;;;5093474;28;20800;-74
2023/04/11 02:49:06;;;;;;;5.43;4.17;;;9.30;2.80;;;;;;5074968;28;20417;-79
2023/04/11 02:51:32;;;;;;;4.73;3.87;;;9.30;4.50;;;;;;5092418;28;20184;-78
2023/04/11 02:53:58;;;;;;;5.47;4.00;;;9.30;12.30;;;;;;5092893;28;20209;-74
2023/04/11 02:56:24;;;;;;;6.03;4.07;;;9.30;22.00;;;;;;5093181;28;20406;-73
2023/04/11 02:58:51;;;;;;;5.10;4.33;;;9.30;31.70;;;;;;5091774;28;20178;-74
2023/04/11 03:01:20;;;;;;;3.57;3.27;;;9.30;32.30;;;;;;5092252;28;20164;-79
2023/04/11 03:03:46;;;;;;;5.77;4.30;;;9.20;32.20;;;;;;5093099;28;20410;-79
2023/04/11 03:06:12;;;;;;;3.93;3.53;;;9.20;43.10;;;;;;5093158;28;20506;-78
2023/04/11 03:08:38;;;;;;;3.53;3.23;;;9.20;54.80;;;;;;5093087;28;20449;-79
2023/04/11 03:11:05;;;;;;;4.30;3.90;;;9.30;64.80;;;;;;5091979;28;20174;-75
2023/04/11 03:13:31;;;;;;;5.97;4.10;;;9.30;67.90;;;;;;5075758;28;20467;-79
2023/04/11 03:15:56;;;;;;;6.00;3.60;;;9.20;71.60;;;;;;5072456;28;20732;-76
2023/04/11 03:18:22;;;;;;;7.37;5.30;;;9.20;78.80;;;;;;5072412;28;20411;-78
2023/04/11 03:20:49;;;;;;;4.63;4.20;;;9.20;80.60;;;;;;5072016;28;20250;-79
2023/04/11 03:23:15;;;;;;;7.93;5.17;;;9.20;80.60;;;;;;5072605;28;20550;-76
2023/04/11 03:25:43;;;;;;;4.80;4.30;;;9.20;85.50;;;;;;5072628;28;20817;-76
2023/04/11 03:28:09;;;;;;;4.70;4.40;;;9.20;89.80;;;;;;5087256;28;20242;-79
2023/04/11 03:30:39;;;;;;;5.93;5.33;;;9.20;88.80;;;;;;5091988;28;20383;-76
2023/04/11 03:33:05;;;;;;;9.90;4.20;;;9.20;90.20;;;;;;5092480;28;20451;-76
2023/04/11 03:35:30;;;;;;;11.07;5.80;;;9.10;91.10;;;;;;5074271;28;20415;-76
2023/04/11 03:37:56;;;;;;;5.70;5.03;;;9.10;91.90;;;;;;5092895;28;20408;-79
2023/04/11 03:40:22;;;;;;;5.80;5.20;;;9.10;93.20;;;;;;5091896;28;20906;-78
2023/04/11 03:42:49;;;;;;;8.60;6.20;;;9.10;95.00;;;;;;5091602;28;20555;-79
2023/04/11 03:45:14;;;;;;;7.60;5.60;;;9.10;95.10;;;;;;5092737;28;20395;-76
2023/04/11 03:47:40;;;;;;;5.90;5.30;;;9.10;96.30;;;;;;5092502;28;20423;-76
2023/04/11 03:50:07;;;;;;;7.30;5.50;;;9.20;98.10;;;;;;5091884;28;20171;-79
2023/04/11 03:52:33;;;;;;;8.90;5.53;;;9.10;97.80;;;;;;5090790;28;20201;-76
2023/04/11 03:54:59;;;;;;;9.10;5.93;;;9.10;97.20;;;;;;5092818;28;20407;-76
2023/04/11 03:57:28;;;;;;;8.43;6.33;;;9.10;96.00;;;;;;5096473;28;20428;-77
2023/04/11 03:59:57;;;;;;;7.87;5.50;;;9.10;94.30;;;;;;5096189;28;20453;-78
2023/04/11 04:02:23;;;;;;;7.37;6.30;;;9.10;92.80;;;;;;5095925;28;20428;-78
2023/04/11 04:04:53;;;;;;;10.53;7.03;;;9.00;90.10;;;;;;5096468;28;20921;-76
2023/04/11 04:07:20;;;;;;;6.73;6.03;;;9.10;90.00;;;;;;5095274;28;20398;-78
2023/04/11 04:09:46;;;;;;;7.03;5.83;;;9.00;83.30;;;;;;5095415;28;20403;-76
2023/04/11 04:12:12;;;;;;;6.43;5.50;;;8.90;82.60;;;;;;5095448;28;20434;-77
2023/04/11 04:14:38;;;;;;;4.63;4.13;;;8.90;80.50;;;;;;5096209;28;20312;-77
2023/04/11 04:17:03;;;;;;;5.57;5.17;;;8.90;80.40;;;;;;5096197;28;20611;-77
2023/04/11 04:19:29;;;;;;;6.07;5.47;;;8.90;80.40;;;;;;5096097;28;20177;-78
2023/04/11 04:21:57;;;;;;;5.20;4.70;;;8.90;80.30;;;;;;5081515;28;20206;-76
2023/04/11 04:24:24;;;;;;;4.60;3.50;;;8.80;73.40;;;;;;5075677;28;20178;-77
2023/04/11 04:26:51;;;;;;;2.80;2.60;;;8.80;64.40;;;;;;5075197;28;20916;-76
2023/04/11 04:29:17;;;;;;;2.77;2.57;;;8.70;31.80;;;;;;5075696;28;20416;-76
2023/04/11 04:31:43;;;;;;;2.93;2.73;;;8.60;6.60;;;;;;5074564;28;20420;-76
2023/04/11 04:34:09;;;;;;;2.20;2.10;;;8.50;1.00;;;;;;5075598;28;20208;-76
2023/04/11 04:36:48;;;;;;;2.93;2.63;;;8.50;1.00;;;;;;5086853;28;20489;-76
2023/04/11 04:39:18;;;;;;;2.73;2.53;;;8.50;1.00;;;;;;5095726;28;20458;-75
2023/04/11 04:41:48;;;;;;;2.13;2.03;;;8.40;1.00;;;;;;5076415;28;20894;-76
2023/04/11 04:44:17;;;;;;;2.77;2.37;;;8.40;1.00;;;;;;5094974;28;20485;-76
2023/04/11 04:46:43;;;;;;;2.77;2.57;;;8.30;1.00;;;;;;5094628;28;20518;-76
2023/04/11 04:49:09;;;;;;;2.60;2.40;;;8.20;1.00;;;;;;5094471;28;20481;-75
2023/04/11 04:51:36;;;;;;;2.77;2.57;;;8.20;1.00;;;;;;5094440;28;20403;-75
2023/04/11 04:54:03;;;;;;;3.33;3.03;;;8.30;1.00;;;;;;5095256;28;20455;-75
2023/04/11 04:56:29;;;;;;;4.23;2.70;;;8.20;1.00;;;;;;5095361;28;20427;-75
2023/04/11 04:58:56;;;;;;;4.33;2.47;;;8.20;1.00;;;;;;5095286;28;20418;-75
2023/04/11 05:01:25;;;;;;;3.80;2.73;;;8.20;1.00;;;;;;5094351;28;20479;-76
2023/04/11 05:03:58;;;;;;;5.73;3.10;;;8.10;1.00;;;;;;5093423;28;20761;-76
2023/04/11 05:06:31;;;;;;;5.10;2.80;;;8.10;1.00;;;;;;5094738;28;20451;-76
2023/04/11 05:09:01;;;;;;;4.37;2.43;;;8.10;1.00;;;;;;5094935;28;20787;-75
2023/04/11 05:11:27;;;;;;;3.50;2.20;;;8.10;1.00;;;;;;5076047;28;20416;-76
2023/04/11 05:13:54;;;;;;;3.00;2.80;;;8.10;1.00;;;;;;5094888;28;20455;-76
2023/04/11 05:16:20;;;;;;;4.53;3.20;;;8.00;1.00;;;;;;5094830;28;20396;-76
2023/04/11 05:18:46;;;;;;;8.60;2.77;;;8.00;1.00;;;;;;5074897;28;20424;-76
2023/04/11 05:21:13;;;;;;;2.67;2.47;;;8.00;1.00;;;;;;5073808;28;20393;-75
2023/04/11 05:23:40;;;;;;;2.60;2.40;;;8.00;1.00;;;;;;5073935;28;20197;-76
2023/04/11 05:26:07;;;;;;;3.20;2.13;;;8.00;1.00;;;;;;5074571;28;20412;-75
2023/04/11 05:28:33;;;;;;;2.73;2.63;;;8.00;1.00;;;;;;5074450;28;20405;-75
2023/04/11 05:31:00;;;;;;;3.07;2.87;;;8.00;1.00;;;;;;5073585;28;20761;-74
2023/04/11 05:33:26;;;;;;;2.20;2.00;;;8.00;1.00;;;;;;5092394;28;20463;-74
2023/04/11 05:35:51;;;;;;;2.53;2.23;;;7.90;1.00;;;;;;5094663;28;20875;-73
2023/04/11 05:38:17;;;;;;;2.77;2.57;;;7.90;1.00;;;;;;5076665;28;20291;-73
2023/04/11 05:40:43;;;;;;;3.60;2.90;;;7.90;1.00;;;;;;5093365;28;20638;-72
2023/04/11 05:43:12;;;;;;;2.57;2.37;;;7.90;1.00;;;;;;5094013;28;20438;-70
2023/04/11 05:45:39;;;;;;;3.10;2.60;;;7.90;1.00;;;;;;5075190;28;20189;-70
2023/04/11 05:48:08;;;;;;;3.10;2.63;;;7.90;1.00;;;;;;5094536;28;20389;-70
2023/04/11 05:50:35;;;;;;;2.60;2.03;;;7.90;1.00;;;;;;5089264;28;21450;-71
2023/04/11 05:53:01;;;;;;;3.70;2.50;;;8.00;1.00;;;;;;5073820;28;20444;-72
2023/04/11 05:55:27;;;;;;;2.57;2.37;;;8.00;1.00;;;;;;5074064;28;20953;-75
2023/04/11 05:57:52;;;;;;;2.30;2.20;;;8.00;1.00;;;;;;5073676;28;20484;-73
2023/04/11 06:00:19;;;;;;;2.33;2.13;;;8.00;1.00;;;;;;5072558;28;20213;-74
2023/04/11 06:02:46;;;;;;;6.10;3.00;;;7.90;1.00;;;;;;5073530;28;20197;-74
2023/04/11 06:05:12;;;;;;;9.73;2.77;;;7.90;1.00;;;;;;5074692;28;20496;-74
2023/04/11 06:07:38;;;;;;;2.90;2.70;;;7.90;1.00;;;;;;5093847;28;20507;-74
2023/04/11 06:10:07;;;;;;;8.70;3.30;;;7.90;1.00;;;;;;5093482;28;20263;-75
2023/04/11 06:12:34;;;;;;;3.43;3.23;;;7.90;1.00;;;;;;5093575;28;20423;-74
2023/04/11 06:15:00;;;;;;;4.03;3.37;;;7.80;1.00;;;;;;5075709;28;20407;-74
2023/04/11 06:17:26;;;;;;;3.40;3.20;;;7.80;1.00;;;;;;5069088;28;20432;-72
2023/04/11 06:19:51;;;;;;;3.90;3.50;;;7.80;6.40;;;;;;5082833;28;20170;-71
2023/04/11 06:22:17;;;;;;;5.37;4.23;;;7.80;15.40;;;;;;5087927;28;20451;-71
2023/04/11 06:24:44;;;;;;;4.20;3.90;;;7.70;18.90;;;;;;5079857;28;20264;-73
2023/04/11 06:27:10;;;;;;;4.40;3.47;;;7.80;30.80;;;;;;5087462;28;20174;-73
2023/04/11 06:29:37;;;;;;;7.00;3.80;;;7.80;30.80;;;;;;5091117;28;20776;-72
2023/04/11 06:32:02;;;;;;;5.90;4.30;;;7.70;32.30;;;;;;5073278;28;20439;-70
2023/04/11 06:34:28;;;;;;;6.80;4.80;;;7.70;43.30;;;;;;5091112;28;20542;-74
2023/04/11 06:36:54;;;;;;;5.63;3.43;;;7.70;48.70;;;;;;5079146;28;20512;-72
2023/04/11 06:39:20;;;;;;;4.50;4.10;;;7.70;58.50;;;;;;5092908;28;20162;-71
2023/04/11 06:41:46;;;;;;;3.60;3.30;;;7.70;60.20;;;;;;5092337;28;20181;-73
2023/04/11 06:44:12;;;;;;;3.73;3.43;;;7.70;61.80;;;;;;5083284;28;20427;-72
2023/04/11 06:46:38;;;;;;;3.60;3.40;;;7.70;69.00;;;;;;5082032;28;20432;-72
2023/04/11 06:49:07;;;;;;;4.00;3.10;;;7.70;76.00;;;;;;5073061;28;20427;-73
2023/04/11 06:51:34;;;;;;;3.90;3.60;;;7.70;79.40;;;;;;5072157;28;20213;-72
2023/04/11 06:54:00;;;;;;;4.30;3.97;;;7.70;79.40;;;;;;5072999;28;20440;-75
2023/04/11 06:56:26;;;;;;;3.63;3.40;;;7.70;79.40;;;;;;5055210;28;20901;-75
2023/04/11 06:58:51;;;;;;;7.40;3.70;;;7.70;86.60;;;;;;5072153;28;20416;-74
2023/04/11 07:01:19;;;;;;;9.00;3.70;;;7.70;91.20;;;;;;5071565;28;20182;-73
2023/04/11 07:03:48;;;;;;;3.00;2.80;;;7.70;94.40;;;;;;5073099;28;20182;-76
2023/04/11 07:06:14;;;;;;;6.87;4.73;;;7.70;98.40;;;;;;5072714;28;20424;-74
2023/04/11 07:08:40;;;;;;;4.00;3.70;;;7.80;99.90;;;;;;5072856;28;20397;-73
2023/04/11 07:11:06;;;;;;;5.30;3.90;;;7.80;99.90;;;;;;5071270;28;20519;-74
2023/04/11 07:13:32;;;;;;;5.17;4.67;;;7.80;99.90;;;;;;5072791;28;20540;-74
2023/04/11 07:15:58;;;;;;;5.03;4.40;;;7.80;99.90;;;;;;5072503;28;20178;-74
2023/04/11 07:18:26;;;;;;;4.60;4.27;;;7.90;99.90;;;;;;5072302;28;20167;-74
2023/04/11 07:20:51;;;;;;;4.80;4.27;;;7.80;99.90;;;;;;5053934;28;20202;-74
2023/04/11 07:23:17;;;;;;;5.27;4.57;;;7.80;99.90;;;;;;5056600;28;20491;-76
2023/04/11 07:25:43;;;;;;;6.67;4.67;;;7.80;99.90;;;;;;5054418;28;20678;-75
2023/04/11 07:28:10;;;;;;;4.70;4.30;;;7.80;99.90;;;;;;5072959;28;20400;-76
2023/04/11 07:30:36;;;;;;;4.90;4.47;;;7.90;99.90;;;;;;5073423;28;20407;-76
2023/04/11 07:33:02;;;;;;;7.23;4.53;;;7.90;99.90;;;;;;5075985;28;20464;-75
2023/04/11 07:35:29;;;;;;;4.67;4.27;;;8.00;99.90;;;;;;5076252;28;20779;-75
2023/04/11 07:37:56;;;;;;;5.33;4.90;;;8.10;99.90;;;;;;5085224;28;20399;-75
2023/04/11 07:40:22;;;;;;;4.93;4.40;;;8.20;99.90;;;;;;5090832;28;20424;-75
2023/04/11 07:42:47;;;;;;;5.60;4.90;;;8.30;99.90;;;;;;5076580;28;20781;-76
2023/04/11 07:45:13;;;;;;;16.80;4.80;;;8.40;99.90;;;;;;5076376;28;20203;-75
2023/04/11 07:47:39;;;;;;;6.33;4.90;;;8.50;99.90;;;;;;5076276;28;20175;-75
2023/04/11 07:50:06;;;;;;;4.60;4.20;;;8.50;99.90;;;;;;5076089;28;20206;-76
2023/04/11 07:52:32;;;;;;;4.00;3.60;;;8.50;99.90;;;;;;5096401;28;20553;-75
2023/04/11 07:54:57;;;;;;;5.20;4.40;;;8.50;99.90;;;;;;5095853;28;20406;-75
2023/04/11 07:57:23;;;;;;;4.77;3.90;;;8.40;94.80;;;;;;5096487;28;20560;-75
2023/04/11 07:59:49;;;;;;;5.40;3.83;;;8.50;83.80;;;;;;5095364;28;20188;-75
2023/04/11 08:02:15;;;;;;;4.30;4.00;;;8.40;73.70;;;;;;5076559;28;20194;-75
2023/04/11 08:04:40;;;;;;;4.50;4.10;;;8.50;65.00;;;;;;5096357;28;20623;-75
2023/04/11 08:07:06;;;;;;;4.37;3.10;;;8.60;72.50;;;;;;5096207;28;20546;-75
2023/04/11 08:09:33;;;;;;;3.90;3.60;;;8.70;80.20;;;;;;5093513;28;20214;-75
2023/04/11 08:12:00;;;;;;;10.23;3.20;;;8.80;68.90;;;;;;5074681;28;20190;-75
2023/04/11 08:14:26;;;;;;;3.67;2.87;;;8.80;45.90;;;;;;5075594;28;20454;-74
2023/04/11 08:16:52;;;;;;;3.70;2.40;;;8.90;32.60;;;;;;5075967;28;20397;-75
2023/04/11 08:19:18;;;;;;;3.20;2.90;;;8.80;18.10;;;;;;5075810;28;20368;-74
2023/04/11 08:21:43;;;;;;;3.33;3.07;;;8.80;7.50;;;;;;5074665;28;20559;-74
2023/04/11 08:24:09;;;;;;;3.93;2.93;;;8.70;1.00;;;;;;5076121;28;20166;-75
2023/04/11 08:26:35;;;;;;;3.13;2.83;;;8.70;1.00;;;;;;5096033;28;20165;-75
2023/04/11 08:29:02;;;;;;;3.60;3.40;;;8.90;1.00;;;;;;5095991;28;20176;-74
2023/04/11 08:31:28;;;;;;;3.73;3.43;;;8.90;1.00;;;;;;5094909;28;20254;-76
2023/04/11 08:33:54;;;;;;;8.30;3.27;;;8.90;1.00;;;;;;5095077;28;20439;-76
2023/04/11 08:36:20;;;;;;;4.03;3.60;;;8.90;1.00;;;;;;5094278;28;20379;-72
2023/04/11 08:38:46;;;;;;;3.00;2.80;;;8.90;1.00;;;;;;5075951;28;20778;-76
2023/04/11 08:41:13;;;;;;;9.23;2.57;;;8.90;1.00;;;;;;5074200;28;20220;-73
2023/04/11 08:43:39;;;;;;;5.23;2.97;;;8.90;1.00;;;;;;5074349;28;20226;-74
2023/04/11 08:46:10;;;;;;;13.50;2.93;;;9.10;1.00;;;;;;5074336;28;20432;-73
2023/04/11 08:48:37;;;;;;;3.10;2.70;;;9.10;1.00;;;;;;5075268;28;20393;-73
2023/04/11 08:51:03;;;;;;;3.20;2.90;;;9.20;1.00;;;;;;5073868;28;20490;-73
2023/04/11 08:53:30;;;;;;;3.30;2.70;;;9.20;1.00;;;;;;5074655;28;20542;-73
2023/04/11 08:55:55;;;;;;;3.30;2.23;;;9.20;1.00;;;;;;5075105;28;20394;-74
2023/04/11 08:58:21;;;;;;;2.57;2.17;;;9.30;1.00;;;;;;5075090;28;20364;-73
2023/04/11 09:00:47;;;;;;;3.93;3.10;;;9.30;1.00;;;;;;5074363;28;20171;-76
2023/04/11 09:03:15;;;;;;;2.30;2.20;;;9.30;1.00;;;;;;5074970;28;20391;-73
2023/04/11 09:05:43;;;;;;;5.37;3.10;;;9.30;1.00;;;;;;5056780;28;20248;-74
2023/04/11 09:08:10;;;;;;;3.13;2.77;;;9.40;1.00;;;;;;5057241;28;20425;-75
2023/04/11 09:10:37;;;;;;;2.13;2.03;;;9.40;1.00;;;;;;5073455;28;20381;-74
2023/04/11 09:13:22;;;;;;;2.30;2.10;;;9.40;1.00;;;;;;5074574;28;20427;-74
2023/04/11 09:16:08;;;;;;;2.53;2.33;;;9.40;1.00;;;;;;5074756;28;20856;-73
2023/04/11 09:18:45;;;;;;;2.90;2.40;;;9.50;1.00;;;;;;5074193;28;20396;-73
2023/04/11 09:21:15;;;;;;;6.90;3.20;;;9.60;1.00;;;;;;5073760;28;20474;-73
2023/04/11 09:23:42;;;;;;;2.70;2.10;;;9.70;1.00;;;;;;5074576;28;20834;-74
2023/04/11 09:26:09;;;;;;;2.20;2.00;;;9.80;1.00;;;;;;5074491;28;20381;-75
2023/04/11 09:28:52;;;;;;;2.13;1.93;;;9.90;1.00;;;;;;5074544;28;20420;-73
2023/04/11 09:31:18;;;;;;;1.93;1.77;;;9.80;1.00;;;;;;5073092;28;20374;-74
2023/04/11 09:33:55;;;;;;;1.60;1.50;;;9.70;1.00;;;;;;5083741;28;20444;-73
2023/04/11 09:36:22;;;;;;;2.23;1.80;;;9.50;1.00;;;;;;5065750;28;20834;-73
2023/04/11 09:38:48;;;;;;;1.93;1.83;;;9.40;1.00;;;;;;5074500;28;20442;-72
2023/04/11 09:41:14;;;;;;;2.97;2.00;;;9.30;1.00;;;;;;5072899;28;20513;-72
2023/04/11 09:43:56;;;;;;;2.17;1.97;;;9.30;1.00;;;;;;5074234;28;20251;-73
2023/04/11 09:46:22;;;;;;;5.10;2.30;;;9.20;1.00;;;;;;5074117;28;20411;-74
2023/04/11 09:48:50;;;;;;;2.40;2.20;;;9.00;1.00;;;;;;5073769;28;21013;-73
2023/04/11 09:51:16;;;;;;;2.60;2.10;;;8.90;1.00;;;;;;5082404;28;20962;-74
2023/04/11 09:53:42;;;;;;;2.20;2.00;;;8.90;1.00;;;;;;5093935;28;20789;-71
2023/04/11 09:56:08;;;;;;;2.23;2.13;;;8.90;1.00;;;;;;5094124;28;20379;-73
2023/04/11 09:58:36;;;;;;;2.17;2.07;;;8.90;1.00;;;;;;5094180;28;20376;-72
2023/04/11 10:01:06;;;;;;;2.80;2.27;;;9.00;1.00;;;;;;5092108;28;20777;-72
2023/04/11 10:03:33;;;;;;;3.27;2.30;;;9.30;1.00;;;;;;5091669;28;20872;-74
2023/04/11 10:06:01;;;;;;;1.77;1.67;;;9.40;1.00;;;;;;5072720;28;20760;-72
2023/04/11 10:08:31;;;;;;;1.70;1.60;;;9.50;1.00;;;;;;5073702;28;20471;-73
2023/04/11 10:10:59;;;;;;;2.37;2.20;;;9.50;1.00;;;;;;5078503;28;20439;-73
2023/04/11 10:13:34;;;;;;;2.00;1.90;;;9.70;1.00;;;;;;5075221;28;20462;-74
2023/04/11 10:16:14;;;;;;;2.07;1.97;;;9.90;1.00;;;;;;5093889;28;20869;-73
2023/04/11 10:18:55;;;;;;;2.20;1.97;;;9.90;99.90;;;;;;5093625;28;20405;-73
2023/04/11 10:21:29;;;;;;;2.03;1.80;;;9.90;99.90;;;;;;5082718;28;20449;-73
2023/04/11 10:24:12;;;;;;;2.93;2.63;;;9.90;99.90;;;;;;5073117;28;20385;-74
2023/04/11 10:26:56;;;;;;;2.70;2.50;;;9.80;99.90;;;;;;5073268;28;20390;-74
2023/04/11 10:29:39;;;;;;;2.60;2.40;;;9.70;99.90;;;;;;5055448;28;20905;-72
2023/04/11 10:32:12;;;;;;;2.20;2.10;;;9.60;99.90;;;;;;5054293;28;20886;-74
2023/04/11 10:34:40;;;;;;;1.80;1.70;;;9.60;99.90;;;;;;5073069;28;20455;-73
2023/04/11 10:37:17;;;;;;;2.30;2.20;;;9.60;99.90;;;;;;5073291;28;20804;-74
2023/04/11 10:39:51;;;;;;;2.70;2.00;;;9.60;99.90;;;;;;5054536;28;20444;-73
2023/04/11 10:42:44;;;;;;;3.00;2.30;;;9.70;99.90;;;;;;5054491;28;20421;-74
2023/04/11 10:45:22;;;;;;;3.93;2.30;;;9.80;99.90;;;;;;5073245;28;20409;-74
2023/04/11 10:48:12;;;;;;;2.47;2.33;;;10.00;99.90;;;;;;5073116;28;20412;-73
2023/04/11 10:50:40;;;;;;;4.47;2.37;;;10.10;99.90;;;;;;5072078;28;20434;-73
2023/04/11 10:53:09;;;;;;;3.40;2.10;;;10.10;99.90;;;;;;5071986;28;20470;-73
2023/04/11 10:56:01;;;;;;;2.60;2.40;;;10.10;99.90;;;;;;5072914;28;20375;-73
2023/04/11 10:58:35;;;;;;;2.63;2.43;;;10.30;99.90;;;;;;5069965;28;20424;-74
2023/04/11 11:01:15;;;;;;;5.73;2.43;;;10.50;99.90;;;;;;5083178;28;20402;-73
2023/04/11 11:03:51;;;;;;;2.63;2.43;;;10.80;99.90;;;;;;5093179;28;20506;-74
2023/04/11 11:06:17;;;;;;;2.87;2.23;;;10.80;99.90;;;;;;5074513;28;20803;-74
2023/04/11 11:08:45;;;;;;;2.23;2.07;;;10.60;99.90;;;;;;5074841;28;20430;-74
2023/04/11 11:11:11;;;;;;;6.27;2.57;;;10.60;99.90;;;;;;5092127;28;20382;-74
2023/04/11 11:13:43;;;;;;;5.13;2.50;;;10.30;99.90;;;;;;5074812;28;20512;-75
2023/04/11 11:16:14;;;;;;;3.57;2.23;;;10.10;99.90;;;;;;5090793;28;20457;-74
2023/04/11 11:18:43;;;;;;;4.17;3.37;;;9.90;99.90;;;;;;5074784;28;20390;-74
2023/04/11 11:21:09;;;;;;;7.73;2.63;;;9.80;99.90;;;;;;5074105;28;20874;-73
2023/04/11 11:23:34;;;;;;;3.43;2.80;;;9.80;99.90;;;;;;5074867;28;20488;-74
2023/04/11 11:26:00;;;;;;;3.30;2.33;;;9.80;99.90;;;;;;5074852;28;20385;-74
2023/04/11 11:28:26;;;;;;;2.20;2.10;;;9.60;99.90;;;;;;5092052;28;20185;-72
2023/04/11 11:30:56;;;;;;;5.80;3.17;;;9.60;99.90;;;;;;5092097;28;20203;-72
2023/04/11 11:33:25;;;;;;;3.07;2.77;;;9.60;99.90;;;;;;5072778;28;20208;-73
2023/04/11 11:35:57;;;;;;;4.30;2.63;;;9.60;99.90;;;;;;5072219;28;20411;-73
2023/04/11 11:38:26;;;;;;;2.40;2.30;;;9.50;99.90;;;;;;5072609;28;20477;-73
2023/04/11 11:40:53;;;;;;;1.53;1.43;;;9.40;99.90;;;;;;5071824;28;20382;-74
2023/04/11 11:43:18;;;;;;;1.70;1.60;;;9.20;99.90;;;;;;5064554;28;20741;-69
2023/04/11 11:45:45;;;;;;;5.77;2.83;;;9.00;99.90;;;;;;5074741;28;20419;-74
2023/04/11 11:48:24;;;;;;;3.07;2.40;;;9.00;99.90;;;;;;5092100;28;20250;-74
2023/04/11 11:50:56;;;;;;;2.00;1.90;;;9.00;99.90;;;;;;5091885;28;20482;-74
2023/04/11 11:53:23;;;;;;;2.43;2.23;;;9.10;99.90;;;;;;5092132;28;20564;-73
2023/04/11 11:55:49;;;;;;;2.00;1.90;;;9.00;99.90;;;;;;5091216;28;20486;-72
2023/04/11 11:58:17;;;;;;;3.33;1.90;;;9.00;99.90;;;;;;5092856;28;20393;-70
2023/04/11 12:00:47;;;;;;;4.50;1.90;;;8.80;99.90;;;;;;5091708;28;20942;-73
2023/04/11 12:03:17;;;;;;;2.93;1.90;;;8.80;99.90;;;;;;5092528;28;20428;-72
2023/04/11 12:05:43;;;;;;;3.00;1.80;;;8.70;99.90;;;;;;5087355;28;20452;-74
2023/04/11 12:08:09;;;;;;;1.73;1.63;;;8.50;99.90;;;;;;5072460;28;20404;-74
2023/04/11 12:10:44;;;;;;;2.63;2.43;;;8.20;99.90;;;;;;5071487;28;20416;-73
2023/04/11 12:13:16;;;;;;;2.97;1.60;;;8.00;99.90;;;;;;5053776;28;20525;-75
2023/04/11 12:15:51;;;;;;;1.67;1.57;;;7.90;99.90;;;;;;5072044;28;20396;-73
2023/04/11 12:18:19;;;;;;;2.20;2.10;;;7.90;99.90;;;;;;5074873;28;20486;-75
2023/04/11 12:20:45;;;;;;;2.70;1.97;;;7.90;99.90;;;;;;5074555;28;20428;-72
2023/04/11 12:23:11;;;;;;;6.60;2.10;;;7.80;1.00;;;;;;5075659;28;20457;-73
2023/04/11 12:25:37;;;;;;;1.60;1.50;;;7.70;1.00;;;;;;5094083;28;20681;-78
2023/04/11 12:28:02;;;;;;;1.93;1.83;;;7.70;1.00;;;;;;5095898;28;20170;-72
2023/04/11 12:30:28;;;;;;;1.57;1.47;;;7.60;1.00;;;;;;5088320;28;20178;-73
2023/04/11 12:32:54;;;;;;;3.97;2.10;;;7.60;1.00;;;;;;5057109;28;20198;-74
2023/04/11 12:35:20;;;;;;;3.30;2.80;;;7.60;1.00;;;;;;5075342;28;20224;-79
2023/04/11 12:37:46;;;;;;;2.93;2.00;;;7.60;1.00;;;;;;5075508;28;20412;-73
2023/04/11 12:40:12;;;;;;;2.50;2.30;;;7.50;1.00;;;;;;5074162;28;20524;-79
2023/04/11 12:42:39;;;;;;;3.13;2.10;;;7.40;1.00;;;;;;5075410;28;20186;-70
2023/04/11 12:45:06;;;;;;;3.67;2.30;;;7.40;1.00;;;;;;5075008;28;20170;-79
2023/04/11 12:47:33;;;;;;;9.73;2.70;;;7.30;1.00;;;;;;5084950;28;20522;-71
2023/04/11 12:49:59;;;;;;;3.43;2.10;;;7.40;1.00;;;;;;5083831;28;20396;-78
2023/04/11 12:52:25;;;;;;;2.30;2.10;;;7.40;1.00;;;;;;5079089;28;20437;-77
2023/04/11 12:54:50;;;;;;;6.20;2.13;;;7.40;1.00;;;;;;5073301;28;20450;-71
2023/04/11 12:57:16;;;;;;;2.17;1.97;;;7.60;1.00;;;;;;5095063;28;20498;-70
2023/04/11 12:59:42;;;;;;;3.13;2.40;;;7.60;1.00;;;;;;5094196;28;20186;-76
2023/04/11 13:02:08;;;;;;;4.60;3.00;;;7.60;1.00;;;;;;5094119;28;20221;-77
2023/04/11 13:04:34;;;;;;;3.60;2.60;;;7.60;1.00;;;;;;5094345;28;20530;-80